Time;durP1;ratioP1;P1;durP2;ratioP2;P2;SDS_P1;SDS_P2;PMS_P1;PMS_P2;Temp;Humidity;BMP_temperature;BMP_pressure;BME280_temperature;BME280_humidity;BME280_pressure;Samples;Min_cycle;Max_cycle;Signal;HPM_P1;HPM_P2
2022/03/08 00:02:17;;;;;;;14.25;6.50;;;0.00;99.90;;;;;;5109555;28;20363;-56
2022/03/08 00:04:43;;;;;;;12.52;6.93;;;0.00;99.90;;;;;;5102807;28;20055;-57
2022/03/08 00:07:08;;;;;;;29.77;14.23;;;0.00;99.90;;;;;;5099210;28;20039;-56
2022/03/08 00:09:34;;;;;;;16.65;8.20;;;0.00;99.90;;;;;;5110315;28;20146;-56
2022/03/08 00:12:00;;;;;;;14.57;7.80;;;0.00;99.90;;;;;;5109783;28;20047;-56
2022/03/08 00:14:25;;;;;;;10.57;5.90;;;0.00;99.90;;;;;;5109773;28;20397;-56
2022/03/08 00:16:51;;;;;;;11.65;6.35;;;0.00;99.90;;;;;;5109636;28;20157;-56
2022/03/08 00:19:17;;;;;;;11.77;6.75;;;1.00;99.90;;;;;;5109827;28;20039;-56
2022/03/08 00:21:43;;;;;;;16.83;8.13;;;-0.10;99.90;;;;;;5109813;28;20040;-60
2022/03/08 00:24:08;;;;;;;25.30;10.55;;;-0.10;99.90;;;;;;5109705;28;20066;-61
2022/03/08 00:26:35;;;;;;;24.55;11.20;;;-0.10;99.90;;;;;;5109512;28;20363;-56
2022/03/08 00:29:00;;;;;;;25.58;11.60;;;-0.10;99.90;;;;;;5107976;28;20169;-56
2022/03/08 00:31:26;;;;;;;21.90;9.85;;;-0.20;99.90;;;;;;5109310;28;20134;-56
2022/03/08 00:33:52;;;;;;;21.90;10.65;;;-0.20;99.90;;;;;;5107863;28;20051;-56
2022/03/08 00:36:17;;;;;;;20.35;9.77;;;-0.20;99.90;;;;;;5108201;28;20452;-55
2022/03/08 00:38:43;;;;;;;19.80;10.02;;;-0.20;99.90;;;;;;5109488;28;20385;-56
2022/03/08 00:41:09;;;;;;;15.52;8.63;;;-0.30;99.90;;;;;;5109130;27;20047;-56
2022/03/08 00:43:34;;;;;;;17.77;9.13;;;-0.30;99.90;;;;;;5109081;28;20112;-56
2022/03/08 00:46:01;;;;;;;15.77;8.07;;;-0.30;99.90;;;;;;5108725;28;20042;-56
2022/03/08 00:48:26;;;;;;;15.23;7.03;;;-0.30;99.90;;;;;;5109170;28;20461;-56
2022/03/08 00:50:52;;;;;;;17.73;7.38;;;-0.30;99.90;;;;;;5109133;28;20156;-57
2022/03/08 00:53:18;;;;;;;16.17;8.23;;;-0.40;99.90;;;;;;5108697;28;20088;-57
2022/03/08 00:55:44;;;;;;;12.68;7.28;;;-0.40;99.90;;;;;;5108992;28;20055;-56
2022/03/08 00:58:10;;;;;;;12.90;6.43;;;-0.40;99.90;;;;;;5107463;28;20096;-57
2022/03/08 01:00:38;;;;;;;14.68;7.60;;;-0.40;99.90;;;;;;5108175;28;20051;-57
2022/03/08 01:03:04;;;;;;;12.32;5.78;;;-0.50;99.90;;;;;;5102338;28;20184;-56
2022/03/08 01:05:31;;;;;;;11.75;6.47;;;-0.50;99.90;;;;;;5099351;28;20123;-56
2022/03/08 01:07:57;;;;;;;7.35;4.57;;;-0.40;99.90;;;;;;5105108;28;20062;-61
2022/03/08 01:10:24;;;;;;;9.20;5.43;;;-0.40;99.90;;;;;;5107021;28;20039;-62
2022/03/08 01:12:51;;;;;;;10.63;6.65;;;-0.40;99.90;;;;;;5094782;28;20400;-57
2022/03/08 01:15:18;;;;;;;13.85;5.50;;;-0.40;99.90;;;;;;5108650;28;20048;-68
2022/03/08 01:17:44;;;;;;;12.43;6.18;;;-0.40;99.90;;;;;;5108544;28;20358;-71
2022/03/08 01:20:11;;;;;;;10.88;6.00;;;-0.40;99.90;;;;;;5108508;28;20043;-59
2022/03/08 01:22:37;;;;;;;12.88;6.55;;;-0.40;99.90;;;;;;5108385;28;20039;-66
2022/03/08 01:25:04;;;;;;;10.95;6.78;;;-0.40;99.90;;;;;;5108380;28;20388;-65
2022/03/08 01:27:30;;;;;;;10.48;6.30;;;-0.40;99.90;;;;;;5108311;28;20055;-66
2022/03/08 01:29:56;;;;;;;9.38;6.47;;;-0.50;99.90;;;;;;5108574;28;20047;-64
2022/03/08 01:32:21;;;;;;;10.18;5.65;;;-0.40;99.90;;;;;;5108166;28;20039;-60
2022/03/08 01:34:48;;;;;;;9.82;5.25;;;0.20;99.90;;;;;;5108712;28;20501;-56
2022/03/08 01:37:13;;;;;;;10.27;5.30;;;-0.30;99.90;;;;;;5106495;28;20500;-57
2022/03/08 01:39:39;;;;;;;8.95;5.57;;;-0.30;99.90;;;;;;5108146;28;20054;-57
2022/03/08 01:42:17;;;;;;;7.25;5.00;;;-0.50;99.90;;;;;;5107738;28;20047;-59
2022/03/08 01:44:45;;;;;;;9.88;5.80;;;-0.40;99.90;;;;;;5108148;28;20093;-58
2022/03/08 01:47:20;;;;;;;7.43;5.20;;;0.30;99.90;;;;;;5107854;28;20114;-55
2022/03/08 01:49:47;;;;;;;9.55;5.82;;;-0.50;99.90;;;;;;5107802;28;20114;-56
2022/03/08 01:52:14;;;;;;;10.07;6.03;;;-0.50;99.90;;;;;;5107918;28;20375;-56
2022/03/08 01:54:42;;;;;;;11.85;6.07;;;0.10;99.90;;;;;;5108069;28;20044;-71
2022/03/08 01:57:08;;;;;;;15.45;7.18;;;-0.60;99.90;;;;;;5108079;28;20048;-62
2022/03/08 01:59:34;;;;;;;7.85;6.55;;;-0.60;99.90;;;;;;5107781;28;20127;-65
2022/03/08 02:02:01;;;;;;;12.32;7.32;;;-0.60;99.90;;;;;;5104701;28;20477;-71
2022/03/08 02:04:27;;;;;;;10.10;6.32;;;-0.60;99.90;;;;;;5107719;28;20066;-69
2022/03/08 02:06:53;;;;;;;9.48;6.43;;;-0.60;99.90;;;;;;5103645;28;20489;-68
2022/03/08 02:09:18;;;;;;;8.45;6.32;;;-0.70;99.90;;;;;;5100057;28;20052;-62
2022/03/08 02:11:44;;;;;;;8.98;6.18;;;-0.70;99.90;;;;;;5103240;28;20150;-72
2022/03/08 02:14:10;;;;;;;12.13;6.78;;;-0.70;99.90;;;;;;5107844;28;20131;-69
2022/03/08 02:16:36;;;;;;;8.43;6.28;;;-0.70;99.90;;;;;;5105823;28;20127;-69
2022/03/08 02:19:02;;;;;;;8.18;5.88;;;-0.80;99.90;;;;;;5100694;28;20044;-69
2022/03/08 02:21:33;;;;;;;10.98;6.38;;;-0.80;99.90;;;;;;5101280;28;20058;-66
2022/03/08 02:23:59;;;;;;;10.00;6.38;;;-0.90;99.90;;;;;;5106051;28;20564;-70
2022/03/08 02:26:25;;;;;;;7.43;5.80;;;-0.90;99.90;;;;;;5108283;28;20043;-72
2022/03/08 02:28:51;;;;;;;8.43;6.45;;;-0.90;99.90;;;;;;5105802;28;20490;-72
2022/03/08 02:31:17;;;;;;;11.73;6.57;;;-0.90;99.90;;;;;;5107687;28;20058;-70
2022/03/08 02:33:44;;;;;;;11.75;6.43;;;-0.90;99.90;;;;;;5107432;28;20040;-69
2022/03/08 02:36:10;;;;;;;10.93;7.20;;;-1.00;99.90;;;;;;5105462;28;20401;-57
2022/03/08 02:38:36;;;;;;;9.48;7.20;;;-1.00;99.90;;;;;;5093002;28;20050;-59
2022/03/08 02:41:02;;;;;;;20.45;7.43;;;-1.00;99.90;;;;;;5107505;28;20445;-70
2022/03/08 02:43:28;;;;;;;13.85;6.88;;;-1.00;99.90;;;;;;5107793;28;20043;-57
2022/03/08 02:45:54;;;;;;;9.90;6.38;;;-1.10;99.90;;;;;;5107605;28;20489;-58
2022/03/08 02:48:20;;;;;;;11.15;8.00;;;-1.10;99.90;;;;;;5107154;28;20093;-57
2022/03/08 02:50:46;;;;;;;14.35;7.22;;;-1.10;99.90;;;;;;5107268;28;20044;-57
2022/03/08 02:53:11;;;;;;;12.52;7.47;;;-1.10;99.90;;;;;;5106047;28;20457;-59
2022/03/08 02:55:37;;;;;;;10.52;6.75;;;-1.10;99.90;;;;;;5105896;28;20048;-62
2022/03/08 02:58:04;;;;;;;7.60;6.57;;;-1.10;99.90;;;;;;5107408;28;20050;-70
2022/03/08 03:00:31;;;;;;;12.60;7.57;;;-1.20;99.90;;;;;;5110149;28;20053;-70
2022/03/08 03:02:57;;;;;;;11.68;7.38;;;-1.20;99.90;;;;;;5111196;28;20050;-71
2022/03/08 03:05:23;;;;;;;10.77;6.60;;;-1.20;99.90;;;;;;5099177;28;20044;-67
2022/03/08 03:07:49;;;;;;;8.98;7.35;;;-1.20;99.90;;;;;;5106938;28;20128;-57
2022/03/08 03:10:19;;;;;;;8.07;6.78;;;-1.20;99.90;;;;;;5111155;28;20067;-58
2022/03/08 03:12:46;;;;;;;10.32;7.13;;;-1.30;99.90;;;;;;5110810;28;20043;-58
2022/03/08 03:15:13;;;;;;;9.35;6.53;;;-1.30;99.90;;;;;;5110490;28;20049;-61
2022/03/08 03:17:39;;;;;;;14.70;6.32;;;-1.40;99.90;;;;;;5110742;28;20500;-56
2022/03/08 03:20:07;;;;;;;12.60;7.50;;;-1.40;99.90;;;;;;5109095;28;20047;-56
2022/03/08 03:22:34;;;;;;;10.32;7.85;;;-1.40;99.90;;;;;;5095797;28;20085;-60
2022/03/08 03:25:00;;;;;;;10.32;7.97;;;-1.50;99.90;;;;;;5105243;28;20036;-64
2022/03/08 03:27:26;;;;;;;16.58;7.68;;;-1.50;99.90;;;;;;5102697;28;20047;-70
2022/03/08 03:29:51;;;;;;;16.10;7.63;;;0.40;99.90;;;;;;5107849;28;20182;-70
2022/03/08 03:32:19;;;;;;;12.93;8.50;;;-1.60;99.90;;;;;;5106456;28;20143;-71
2022/03/08 03:34:45;;;;;;;9.80;7.35;;;-1.60;99.90;;;;;;5096984;28;20806;-57
2022/03/08 03:37:11;;;;;;;10.80;6.45;;;-1.60;99.90;;;;;;5108918;28;20062;-58
2022/03/08 03:39:37;;;;;;;9.52;6.45;;;-1.60;99.90;;;;;;5105696;28;20047;-61
2022/03/08 03:42:03;;;;;;;10.95;7.20;;;-1.60;99.90;;;;;;5109505;28;20040;-59
2022/03/08 03:44:29;;;;;;;11.30;6.07;;;-1.70;99.90;;;;;;5109184;28;20132;-57
2022/03/08 03:46:55;;;;;;;11.10;7.35;;;-1.70;99.90;;;;;;5109312;28;20435;-58
2022/03/08 03:49:20;;;;;;;9.75;6.82;;;-1.70;99.90;;;;;;5108390;28;20565;-59
2022/03/08 03:51:47;;;;;;;8.63;7.75;;;-1.80;99.90;;;;;;5109212;28;20123;-61
2022/03/08 03:54:13;;;;;;;12.05;7.72;;;-1.70;99.90;;;;;;5108648;28;20150;-62
2022/03/08 03:56:38;;;;;;;10.60;7.15;;;-1.80;99.90;;;;;;5109033;27;20147;-65
2022/03/08 03:59:04;;;;;;;9.90;7.10;;;-1.80;99.90;;;;;;5108776;28;20146;-71
2022/03/08 04:01:30;;;;;;;11.05;6.93;;;-1.80;99.90;;;;;;5108946;28;20102;-58
2022/03/08 04:03:56;;;;;;;12.18;7.82;;;-1.70;99.90;;;;;;5108391;28;20067;-56
2022/03/08 04:06:21;;;;;;;11.57;7.35;;;-1.80;99.90;;;;;;5092602;28;20103;-58
2022/03/08 04:08:47;;;;;;;14.07;7.10;;;-1.80;99.90;;;;;;5108732;28;20935;-59
2022/03/08 04:11:12;;;;;;;9.75;7.15;;;-1.80;99.90;;;;;;5107937;28;20054;-59
2022/03/08 04:13:38;;;;;;;13.80;8.05;;;-1.90;99.90;;;;;;5109666;27;20135;-56
2022/03/08 04:16:04;;;;;;;11.63;8.27;;;-1.80;99.90;;;;;;5109370;28;20127;-58
2022/03/08 04:18:30;;;;;;;11.02;7.82;;;-1.90;99.90;;;;;;5102237;28;20497;-56
2022/03/08 04:20:56;;;;;;;11.63;8.13;;;-1.90;99.90;;;;;;5109486;28;20035;-56
2022/03/08 04:23:21;;;;;;;17.60;9.50;;;-1.90;99.90;;;;;;5108018;28;20062;-58
2022/03/08 04:25:47;;;;;;;12.13;7.85;;;-1.80;99.90;;;;;;5109242;28;20055;-72
2022/03/08 04:28:13;;;;;;;12.85;9.38;;;-1.90;99.90;;;;;;5109710;28;20130;-67
2022/03/08 04:30:38;;;;;;;14.60;7.90;;;-1.90;99.90;;;;;;5108771;28;20104;-64
2022/03/08 04:33:04;;;;;;;10.70;7.97;;;-1.90;99.90;;;;;;5108725;28;20040;-70
2022/03/08 04:35:30;;;;;;;10.40;7.57;;;-1.90;99.90;;;;;;5100925;28;20039;-65
2022/03/08 04:37:55;;;;;;;13.82;8.73;;;-1.90;99.90;;;;;;5101330;28;20098;-73
2022/03/08 04:40:21;;;;;;;10.82;7.68;;;-1.90;99.90;;;;;;5107765;28;20055;-56
2022/03/08 04:42:47;;;;;;;9.55;7.85;;;-1.90;99.90;;;;;;5109441;28;20067;-56
2022/03/08 04:45:13;;;;;;;11.55;7.72;;;-1.90;99.90;;;;;;5102430;28;20075;-56
2022/03/08 04:47:39;;;;;;;12.07;8.68;;;-1.90;99.90;;;;;;5109314;28;20047;-57
2022/03/08 04:50:08;;;;;;;13.23;8.40;;;-1.90;99.90;;;;;;5109178;28;20054;-56
2022/03/08 04:52:34;;;;;;;14.60;7.45;;;-1.90;99.90;;;;;;5109201;28;20040;-56
2022/03/08 04:55:00;;;;;;;15.48;9.05;;;-2.00;99.90;;;;;;5109826;28;20039;-56
2022/03/08 04:57:26;;;;;;;15.25;9.05;;;-1.90;99.90;;;;;;5109869;27;20089;-56
2022/03/08 04:59:52;;;;;;;12.35;7.55;;;-1.90;99.90;;;;;;5109647;28;20055;-56
2022/03/08 05:02:18;;;;;;;14.45;8.57;;;-1.90;99.90;;;;;;5107484;28;20051;-56
2022/03/08 05:04:43;;;;;;;13.70;8.52;;;-1.90;99.90;;;;;;5103129;28;20127;-56
2022/03/08 05:07:09;;;;;;;12.57;7.93;;;-2.00;99.90;;;;;;5100062;28;20071;-56
2022/03/08 05:09:35;;;;;;;13.02;8.27;;;-1.90;99.90;;;;;;5110043;28;20092;-56
2022/03/08 05:12:00;;;;;;;16.02;9.48;;;-1.90;99.90;;;;;;5109896;28;20409;-56
2022/03/08 05:14:26;;;;;;;14.98;8.93;;;-2.00;99.90;;;;;;5109574;28;20036;-57
2022/03/08 05:16:52;;;;;;;13.77;8.02;;;-2.00;99.90;;;;;;5109990;28;20044;-56
2022/03/08 05:19:18;;;;;;;11.82;8.25;;;-2.00;99.90;;;;;;5109473;28;20079;-57
2022/03/08 05:21:44;;;;;;;14.75;8.45;;;-2.00;99.90;;;;;;5109553;28;20082;-56
2022/03/08 05:24:10;;;;;;;17.10;8.98;;;-1.90;99.90;;;;;;5109367;28;20079;-56
2022/03/08 05:26:37;;;;;;;13.50;8.85;;;-2.00;99.90;;;;;;5109819;28;20085;-69
2022/03/08 05:29:04;;;;;;;13.75;8.80;;;-2.00;99.90;;;;;;5109294;28;20517;-72
2022/03/08 05:31:30;;;;;;;17.13;8.52;;;-1.90;99.90;;;;;;5109246;28;20118;-66
2022/03/08 05:33:55;;;;;;;14.07;8.82;;;-2.00;99.90;;;;;;5108280;28;20126;-60
2022/03/08 05:36:21;;;;;;;13.70;9.00;;;-1.90;99.90;;;;;;5108885;28;20043;-68
2022/03/08 05:38:47;;;;;;;18.90;9.88;;;-2.00;99.90;;;;;;5103322;28;20058;-69
2022/03/08 05:41:12;;;;;;;14.02;8.70;;;-2.00;99.90;;;;;;5108002;28;20062;-62
2022/03/08 05:43:38;;;;;;;17.25;9.27;;;-1.90;99.90;;;;;;5108127;28;20047;-59
2022/03/08 05:46:04;;;;;;;15.07;8.52;;;-1.90;99.90;;;;;;5108398;28;20126;-63
2022/03/08 05:48:30;;;;;;;14.48;8.30;;;-1.90;99.90;;;;;;5108945;28;20075;-61
2022/03/08 05:50:55;;;;;;;13.63;8.13;;;-1.90;99.90;;;;;;5104397;28;20123;-60
2022/03/08 05:53:21;;;;;;;13.23;9.38;;;-1.90;99.90;;;;;;5108564;28;20036;-62
2022/03/08 05:55:47;;;;;;;15.90;9.50;;;-1.90;99.90;;;;;;5107385;28;20047;-64
2022/03/08 05:58:12;;;;;;;17.00;10.63;;;-1.90;99.90;;;;;;5105849;28;20050;-70
2022/03/08 06:00:38;;;;;;;15.38;9.43;;;-1.90;99.90;;;;;;5109242;28;20043;-65
2022/03/08 06:03:04;;;;;;;15.02;9.02;;;-1.90;99.90;;;;;;5101629;28;20405;-60
2022/03/08 06:05:30;;;;;;;12.70;8.98;;;-1.90;99.90;;;;;;5093220;28;20493;-64
2022/03/08 06:07:55;;;;;;;17.10;10.25;;;-1.90;99.90;;;;;;5102629;28;20040;-64
2022/03/08 06:10:21;;;;;;;13.55;9.07;;;-1.90;99.90;;;;;;5098026;28;20130;-56
2022/03/08 06:12:46;;;;;;;16.83;9.02;;;-1.80;99.90;;;;;;5096957;28;20116;-63
2022/03/08 06:15:12;;;;;;;21.00;9.38;;;-1.80;99.90;;;;;;5106951;28;20180;-65
2022/03/08 06:17:38;;;;;;;15.27;9.88;;;-1.80;99.90;;;;;;5098911;28;20044;-62
2022/03/08 06:20:04;;;;;;;15.38;10.15;;;-1.70;99.90;;;;;;5106550;28;20403;-63
2022/03/08 06:22:30;;;;;;;19.85;9.52;;;-1.70;99.90;;;;;;5105058;28;20035;-63
2022/03/08 06:24:56;;;;;;;17.02;10.80;;;-1.70;99.90;;;;;;5107453;28;20104;-62
2022/03/08 06:27:21;;;;;;;13.77;8.95;;;-1.70;99.90;;;;;;5107550;28;20047;-69
2022/03/08 06:29:47;;;;;;;18.42;10.30;;;-1.60;99.90;;;;;;5107379;28;20493;-63
2022/03/08 06:32:13;;;;;;;14.30;8.88;;;-1.60;99.90;;;;;;5099073;28;20130;-68
2022/03/08 06:34:38;;;;;;;17.13;9.48;;;-1.60;99.90;;;;;;5107943;28;20047;-64
2022/03/08 06:37:04;;;;;;;17.67;10.98;;;-1.50;99.90;;;;;;5111502;28;20515;-64
2022/03/08 06:39:30;;;;;;;16.77;10.35;;;-1.40;99.90;;;;;;5105928;28;20052;-60
2022/03/08 06:41:56;;;;;;;13.40;9.88;;;-1.40;99.90;;;;;;5104361;28;20047;-56
2022/03/08 06:44:21;;;;;;;15.32;8.35;;;-1.30;99.90;;;;;;5112035;28;20062;-57
